sensor_id;sensor_type;location;lat;lon;timestamp;temperature;humidity
17954;DHT22;9102;53.548;9.926;2023-05-08T00:00:08;10.80;99.90
17954;DHT22;9102;53.548;9.926;2023-05-08T00:02:35;10.80;99.90
17954;DHT22;9102;53.548;9.926;2023-05-08T00:05:04;10.70;99.90
17954;DHT22;9102;53.548;9.926;2023-05-08T00:07:32;10.70;99.90
17954;DHT22;9102;53.548;9.926;2023-05-08T00:09:59;10.70;99.90
17954;DHT22;9102;53.548;9.926;2023-05-08T00:12:35;10.60;99.90
17954;DHT22;9102;53.548;9.926;2023-05-08T00:15:03;10.60;99.90
17954;DHT22;9102;53.548;9.926;2023-05-08T00:17:30;10.60;99.90
17954;DHT22;9102;53.548;9.926;2023-05-08T00:19:58;10.60;99.90
17954;DHT22;9102;53.548;9.926;2023-05-08T00:22:26;10.50;99.90
17954;DHT22;9102;53.548;9.926;2023-05-08T00:24:53;10.50;99.90
17954;DHT22;9102;53.548;9.926;2023-05-08T00:27:20;10.50;99.90
17954;DHT22;9102;53.548;9.926;2023-05-08T00:29:47;10.50;99.90
17954;DHT22;9102;53.548;9.926;2023-05-08T00:32:14;10.50;99.90
17954;DHT22;9102;53.548;9.926;2023-05-08T00:34:41;10.40;99.90
17954;DHT22;9102;53.548;9.926;2023-05-08T00:37:08;10.40;99.90
17954;DHT22;9102;53.548;9.926;2023-05-08T00:39:36;10.40;99.90
17954;DHT22;9102;53.548;9.926;2023-05-08T00:42:03;10.40;99.90
17954;DHT22;9102;53.548;9.926;2023-05-08T00:44:30;10.40;99.90
17954;DHT22;9102;53.548;9.926;2023-05-08T00:46:57;10.30;99.90
17954;DHT22;9102;53.548;9.926;2023-05-08T00:49:24;10.30;99.90
17954;DHT22;9102;53.548;9.926;2023-05-08T00:51:53;10.30;99.90
17954;DHT22;9102;53.548;9.926;2023-05-08T00:54:21;10.30;99.90
17954;DHT22;9102;53.548;9.926;2023-05-08T00:56:49;10.30;99.90
17954;DHT22;9102;53.548;9.926;2023-05-08T00:59:19;10.30;99.90
17954;DHT22;9102;53.548;9.926;2023-05-08T01:01:48;10.30;99.90
17954;DHT22;9102;53.548;9.926;2023-05-08T01:04:18;10.30;99.90
17954;DHT22;9102;53.548;9.926;2023-05-08T01:06:46;10.30;99.90
17954;DHT22;9102;53.548;9.926;2023-05-08T01:09:13;10.30;99.90
17954;DHT22;9102;53.548;9.926;2023-05-08T01:11:45;10.30;99.90
17954;DHT22;9102;53.548;9.926;2023-05-08T01:14:18;10.30;99.90
17954;DHT22;9102;53.548;9.926;2023-05-08T01:16:52;10.20;99.90
17954;DHT22;9102;53.548;9.926;2023-05-08T01:19:39;10.20;99.90
17954;DHT22;9102;53.548;9.926;2023-05-08T01:22:13;10.20;99.90
17954;DHT22;9102;53.548;9.926;2023-05-08T01:25:11;10.20;99.90
17954;DHT22;9102;53.548;9.926;2023-05-08T01:28:07;10.10;99.90
17954;DHT22;9102;53.548;9.926;2023-05-08T01:31:13;10.10;99.90
17954;DHT22;9102;53.548;9.926;2023-05-08T01:33:47;10.10;99.90
17954;DHT22;9102;53.548;9.926;2023-05-08T01:36:24;10.00;99.90
17954;DHT22;9102;53.548;9.926;2023-05-08T01:39:02;10.00;99.90
17954;DHT22;9102;53.548;9.926;2023-05-08T01:41:31;10.00;99.90
17954;DHT22;9102;53.548;9.926;2023-05-08T01:44:12;9.90;99.90
17954;DHT22;9102;53.548;9.926;2023-05-08T01:46:44;9.90;99.90
17954;DHT22;9102;53.548;9.926;2023-05-08T01:49:19;9.90;99.90
17954;DHT22;9102;53.548;9.926;2023-05-08T01:51:56;9.80;99.90
17954;DHT22;9102;53.548;9.926;2023-05-08T01:54:27;9.80;99.90
17954;DHT22;9102;53.548;9.926;2023-05-08T01:56:56;9.80;99.90
17954;DHT22;9102;53.548;9.926;2023-05-08T01:59:23;9.80;99.90
17954;DHT22;9102;53.548;9.926;2023-05-08T02:01:54;9.70;99.90
17954;DHT22;9102;53.548;9.926;2023-05-08T02:04:25;9.70;99.90
17954;DHT22;9102;53.548;9.926;2023-05-08T02:06:54;9.60;99.90
17954;DHT22;9102;53.548;9.926;2023-05-08T02:09:23;9.60;99.90
17954;DHT22;9102;53.548;9.926;2023-05-08T02:11:52;9.60;99.90
17954;DHT22;9102;53.548;9.926;2023-05-08T02:14:21;9.60;99.90
17954;DHT22;9102;53.548;9.926;2023-05-08T02:16:50;9.50;99.90
17954;DHT22;9102;53.548;9.926;2023-05-08T02:19:18;9.50;99.90
17954;DHT22;9102;53.548;9.926;2023-05-08T02:21:49;9.50;99.90
17954;DHT22;9102;53.548;9.926;2023-05-08T02:24:17;9.40;99.90
17954;DHT22;9102;53.548;9.926;2023-05-08T02:26:45;9.40;99.90
17954;DHT22;9102;53.548;9.926;2023-05-08T02:29:13;9.40;99.90
17954;DHT22;9102;53.548;9.926;2023-05-08T02:31:41;9.40;99.90
17954;DHT22;9102;53.548;9.926;2023-05-08T02:34:09;9.40;99.90
17954;DHT22;9102;53.548;9.926;2023-05-08T02:36:37;9.30;99.90
17954;DHT22;9102;53.548;9.926;2023-05-08T02:39:07;9.30;99.90
17954;DHT22;9102;53.548;9.926;2023-05-08T02:41:39;9.30;99.90
17954;DHT22;9102;53.548;9.926;2023-05-08T02:44:07;9.30;99.90
17954;DHT22;9102;53.548;9.926;2023-05-08T02:46:40;9.20;99.90
17954;DHT22;9102;53.548;9.926;2023-05-08T02:49:15;9.20;99.90
17954;DHT22;9102;53.548;9.926;2023-05-08T02:51:49;9.20;99.90
17954;DHT22;9102;53.548;9.926;2023-05-08T02:54:27;9.10;99.90
17954;DHT22;9102;53.548;9.926;2023-05-08T02:57:00;9.20;99.90
17954;DHT22;9102;53.548;9.926;2023-05-08T02:59:30;9.20;99.90
17954;DHT22;9102;53.548;9.926;2023-05-08T03:02:04;9.20;99.90
17954;DHT22;9102;53.548;9.926;2023-05-08T03:04:35;9.20;99.90
17954;DHT22;9102;53.548;9.926;2023-05-08T03:07:03;9.20;99.90
17954;DHT22;9102;53.548;9.926;2023-05-08T03:09:38;9.10;99.90
17954;DHT22;9102;53.548;9.926;2023-05-08T03:12:11;9.10;99.90
17954;DHT22;9102;53.548;9.926;2023-05-08T03:14:46;9.10;99.90
17954;DHT22;9102;53.548;9.926;2023-05-08T03:17:20;9.00;99.90
17954;DHT22;9102;53.548;9.926;2023-05-08T03:19:51;9.00;99.90
17954;DHT22;9102;53.548;9.926;2023-05-08T03:22:18;9.00;99.90
17954;DHT22;9102;53.548;9.926;2023-05-08T03:24:48;9.00;99.90
17954;DHT22;9102;53.548;9.926;2023-05-08T03:27:16;9.00;99.90
17954;DHT22;9102;53.548;9.926;2023-05-08T03:29:45;9.00;99.90
17954;DHT22;9102;53.548;9.926;2023-05-08T03:32:13;9.00;99.90
17954;DHT22;9102;53.548;9.926;2023-05-08T03:34:40;9.00;99.90
17954;DHT22;9102;53.548;9.926;2023-05-08T03:37:07;9.00;99.90
17954;DHT22;9102;53.548;9.926;2023-05-08T03:39:34;9.00;99.90
17954;DHT22;9102;53.548;9.926;2023-05-08T03:42:02;9.00;99.90
17954;DHT22;9102;53.548;9.926;2023-05-08T03:44:29;8.90;99.90
17954;DHT22;9102;53.548;9.926;2023-05-08T03:46:58;8.90;99.90
17954;DHT22;9102;53.548;9.926;2023-05-08T03:49:25;9.00;99.90
17954;DHT22;9102;53.548;9.926;2023-05-08T03:51:55;8.90;99.90
17954;DHT22;9102;53.548;9.926;2023-05-08T03:54:22;8.90;99.90
17954;DHT22;9102;53.548;9.926;2023-05-08T03:56:50;8.90;99.90
17954;DHT22;9102;53.548;9.926;2023-05-08T03:59:25;8.80;99.90
17954;DHT22;9102;53.548;9.926;2023-05-08T04:01:58;8.90;99.90
17954;DHT22;9102;53.548;9.926;2023-05-08T04:04:33;8.80;99.90
17954;DHT22;9102;53.548;9.926;2023-05-08T04:07:07;8.80;99.90
17954;DHT22;9102;53.548;9.926;2023-05-08T04:09:38;8.80;99.90
17954;DHT22;9102;53.548;9.926;2023-05-08T04:12:12;8.70;99.90
17954;DHT22;9102;53.548;9.926;2023-05-08T04:14:44;8.80;99.90
17954;DHT22;9102;53.548;9.926;2023-05-08T04:17:16;8.80;99.90
17954;DHT22;9102;53.548;9.926;2023-05-08T04:19:49;8.70;99.90
17954;DHT22;9102;53.548;9.926;2023-05-08T04:22:19;8.70;99.90
17954;DHT22;9102;53.548;9.926;2023-05-08T04:24:50;8.70;99.90
17954;DHT22;9102;53.548;9.926;2023-05-08T04:27:18;8.70;99.90
17954;DHT22;9102;53.548;9.926;2023-05-08T04:29:46;8.70;99.90
17954;DHT22;9102;53.548;9.926;2023-05-08T04:32:13;8.80;99.90
17954;DHT22;9102;53.548;9.926;2023-05-08T04:34:41;8.80;99.90
17954;DHT22;9102;53.548;9.926;2023-05-08T04:37:08;8.90;99.90
17954;DHT22;9102;53.548;9.926;2023-05-08T04:39:34;8.80;99.90
17954;DHT22;9102;53.548;9.926;2023-05-08T04:42:01;8.80;99.90
17954;DHT22;9102;53.548;9.926;2023-05-08T04:44:29;8.80;99.90
17954;DHT22;9102;53.548;9.926;2023-05-08T04:46:58;8.90;99.90
17954;DHT22;9102;53.548;9.926;2023-05-08T04:49:24;8.90;99.90
17954;DHT22;9102;53.548;9.926;2023-05-08T04:51:51;9.00;99.90
17954;DHT22;9102;53.548;9.926;2023-05-08T04:54:18;9.00;99.90
17954;DHT22;9102;53.548;9.926;2023-05-08T04:56:45;8.90;99.90
17954;DHT22;9102;53.548;9.926;2023-05-08T04:59:12;9.00;99.90
17954;DHT22;9102;53.548;9.926;2023-05-08T05:01:38;9.00;99.90
17954;DHT22;9102;53.548;9.926;2023-05-08T05:04:07;9.00;99.90
17954;DHT22;9102;53.548;9.926;2023-05-08T05:06:33;9.00;99.90
17954;DHT22;9102;53.548;9.926;2023-05-08T05:09:00;9.00;99.90
17954;DHT22;9102;53.548;9.926;2023-05-08T05:11:28;9.00;99.90
17954;DHT22;9102;53.548;9.926;2023-05-08T05:13:54;9.10;99.90
17954;DHT22;9102;53.548;9.926;2023-05-08T05:16:21;9.10;99.90
17954;DHT22;9102;53.548;9.926;2023-05-08T05:18:48;9.20;99.90
17954;DHT22;9102;53.548;9.926;2023-05-08T05:21:16;9.20;99.90
17954;DHT22;9102;53.548;9.926;2023-05-08T05:23:43;9.20;99.90
17954;DHT22;9102;53.548;9.926;2023-05-08T05:26:10;9.30;99.90
17954;DHT22;9102;53.548;9.926;2023-05-08T05:28:37;9.30;99.90
17954;DHT22;9102;53.548;9.926;2023-05-08T05:31:04;9.40;99.90
17954;DHT22;9102;53.548;9.926;2023-05-08T05:33:31;9.40;99.90
17954;DHT22;9102;53.548;9.926;2023-05-08T05:35:57;9.50;99.90
17954;DHT22;9102;53.548;9.926;2023-05-08T05:38:31;9.50;99.90
17954;DHT22;9102;53.548;9.926;2023-05-08T05:40:58;9.50;99.90
17954;DHT22;9102;53.548;9.926;2023-05-08T05:43:25;9.50;99.90
17954;DHT22;9102;53.548;9.926;2023-05-08T05:45:54;9.40;99.90
17954;DHT22;9102;53.548;9.926;2023-05-08T05:48:27;9.40;99.90
17954;DHT22;9102;53.548;9.926;2023-05-08T05:50:54;9.40;99.90
17954;DHT22;9102;53.548;9.926;2023-05-08T05:53:21;9.40;99.90
17954;DHT22;9102;53.548;9.926;2023-05-08T05:55:49;9.30;99.90
17954;DHT22;9102;53.548;9.926;2023-05-08T05:58:16;9.40;99.90
17954;DHT22;9102;53.548;9.926;2023-05-08T06:00:42;9.50;99.90
17954;DHT22;9102;53.548;9.926;2023-05-08T06:03:09;9.50;99.90
17954;DHT22;9102;53.548;9.926;2023-05-08T06:05:36;9.50;99.90
17954;DHT22;9102;53.548;9.926;2023-05-08T06:08:03;9.40;99.90
17954;DHT22;9102;53.548;9.926;2023-05-08T06:10:30;9.50;99.90
17954;DHT22;9102;53.548;9.926;2023-05-08T06:13:01;9.60;99.90
17954;DHT22;9102;53.548;9.926;2023-05-08T06:15:28;9.60;99.90
17954;DHT22;9102;53.548;9.926;2023-05-08T06:17:56;9.60;99.90
17954;DHT22;9102;53.548;9.926;2023-05-08T06:20:23;9.70;99.90
17954;DHT22;9102;53.548;9.926;2023-05-08T06:22:50;9.70;99.90
17954;DHT22;9102;53.548;9.926;2023-05-08T06:25:17;9.70;99.90
17954;DHT22;9102;53.548;9.926;2023-05-08T06:27:44;9.80;99.90
17954;DHT22;9102;53.548;9.926;2023-05-08T06:30:13;9.80;99.90
17954;DHT22;9102;53.548;9.926;2023-05-08T06:32:39;9.90;99.90
17954;DHT22;9102;53.548;9.926;2023-05-08T06:35:07;10.00;99.90
17954;DHT22;9102;53.548;9.926;2023-05-08T06:37:34;10.10;99.90
17954;DHT22;9102;53.548;9.926;2023-05-08T06:40:00;10.20;99.90
17954;DHT22;9102;53.548;9.926;2023-05-08T06:42:28;10.20;99.90
17954;DHT22;9102;53.548;9.926;2023-05-08T06:44:55;10.10;99.90
17954;DHT22;9102;53.548;9.926;2023-05-08T06:47:23;10.30;99.90
17954;DHT22;9102;53.548;9.926;2023-05-08T06:49:50;10.40;99.90
17954;DHT22;9102;53.548;9.926;2023-05-08T06:52:18;10.40;99.90
17954;DHT22;9102;53.548;9.926;2023-05-08T06:54:45;10.40;99.90
17954;DHT22;9102;53.548;9.926;2023-05-08T06:57:12;10.60;99.90
17954;DHT22;9102;53.548;9.926;2023-05-08T06:59:39;10.70;99.90
17954;DHT22;9102;53.548;9.926;2023-05-08T07:02:08;10.70;99.90
17954;DHT22;9102;53.548;9.926;2023-05-08T07:04:42;10.80;99.90
17954;DHT22;9102;53.548;9.926;2023-05-08T07:07:09;10.80;99.90
17954;DHT22;9102;53.548;9.926;2023-05-08T07:09:37;10.80;99.90
17954;DHT22;9102;53.548;9.926;2023-05-08T07:12:04;10.80;99.90
17954;DHT22;9102;53.548;9.926;2023-05-08T07:14:31;10.90;99.90
17954;DHT22;9102;53.548;9.926;2023-05-08T07:17:02;11.10;99.90
17954;DHT22;9102;53.548;9.926;2023-05-08T07:19:31;11.00;99.90
17954;DHT22;9102;53.548;9.926;2023-05-08T07:21:59;11.00;99.90
17954;DHT22;9102;53.548;9.926;2023-05-08T07:24:26;11.10;99.90
17954;DHT22;9102;53.548;9.926;2023-05-08T07:26:53;11.20;99.90
17954;DHT22;9102;53.548;9.926;2023-05-08T07:29:20;11.20;99.90
17954;DHT22;9102;53.548;9.926;2023-05-08T07:31:47;11.10;99.90
17954;DHT22;9102;53.548;9.926;2023-05-08T07:34:14;11.10;99.90
17954;DHT22;9102;53.548;9.926;2023-05-08T07:36:40;11.20;99.90
17954;DHT22;9102;53.548;9.926;2023-05-08T07:39:09;11.20;99.90
17954;DHT22;9102;53.548;9.926;2023-05-08T07:41:35;11.20;99.90
17954;DHT22;9102;53.548;9.926;2023-05-08T07:44:05;11.20;99.90
17954;DHT22;9102;53.548;9.926;2023-05-08T07:46:32;11.40;99.90
17954;DHT22;9102;53.548;9.926;2023-05-08T07:48:58;11.50;99.90
17954;DHT22;9102;53.548;9.926;2023-05-08T07:51:25;11.70;99.90
17954;DHT22;9102;53.548;9.926;2023-05-08T07:53:53;12.00;99.90
17954;DHT22;9102;53.548;9.926;2023-05-08T07:56:21;12.20;99.90
17954;DHT22;9102;53.548;9.926;2023-05-08T07:58:49;12.20;99.90
17954;DHT22;9102;53.548;9.926;2023-05-08T08:01:15;12.20;99.90
17954;DHT22;9102;53.548;9.926;2023-05-08T08:03:43;12.10;99.90
17954;DHT22;9102;53.548;9.926;2023-05-08T08:06:10;12.00;99.90
17954;DHT22;9102;53.548;9.926;2023-05-08T08:08:37;12.20;99.90
17954;DHT22;9102;53.548;9.926;2023-05-08T08:11:05;12.30;99.90
17954;DHT22;9102;53.548;9.926;2023-05-08T08:13:33;12.50;99.90
17954;DHT22;9102;53.548;9.926;2023-05-08T08:16:00;12.70;99.90
17954;DHT22;9102;53.548;9.926;2023-05-08T08:18:29;12.80;99.90
17954;DHT22;9102;53.548;9.926;2023-05-08T08:20:59;12.90;99.90
17954;DHT22;9102;53.548;9.926;2023-05-08T08:23:26;13.00;99.90
17954;DHT22;9102;53.548;9.926;2023-05-08T08:25:52;13.20;99.90
17954;DHT22;9102;53.548;9.926;2023-05-08T08:28:19;13.50;99.90
17954;DHT22;9102;53.548;9.926;2023-05-08T08:30:48;13.60;99.90
17954;DHT22;9102;53.548;9.926;2023-05-08T08:33:15;13.70;99.90
17954;DHT22;9102;53.548;9.926;2023-05-08T08:35:42;13.50;99.90
17954;DHT22;9102;53.548;9.926;2023-05-08T08:38:08;13.20;99.90
17954;DHT22;9102;53.548;9.926;2023-05-08T08:40:38;13.00;99.90
17954;DHT22;9102;53.548;9.926;2023-05-08T08:43:05;13.10;99.90
17954;DHT22;9102;53.548;9.926;2023-05-08T08:45:32;13.50;99.90
17954;DHT22;9102;53.548;9.926;2023-05-08T08:48:01;13.60;99.90
17954;DHT22;9102;53.548;9.926;2023-05-08T08:50:30;13.80;99.90
17954;DHT22;9102;53.548;9.926;2023-05-08T08:53:09;14.00;99.90
17954;DHT22;9102;53.548;9.926;2023-05-08T08:55:39;14.10;99.90
17954;DHT22;9102;53.548;9.926;2023-05-08T08:58:19;13.90;99.90
17954;DHT22;9102;53.548;9.926;2023-05-08T09:00:47;13.90;99.90
17954;DHT22;9102;53.548;9.926;2023-05-08T09:03:16;13.80;99.90
17954;DHT22;9102;53.548;9.926;2023-05-08T09:05:43;13.80;99.90
17954;DHT22;9102;53.548;9.926;2023-05-08T09:08:11;13.70;99.90
17954;DHT22;9102;53.548;9.926;2023-05-08T09:10:38;13.60;99.90
17954;DHT22;9102;53.548;9.926;2023-05-08T09:13:05;13.50;99.90
17954;DHT22;9102;53.548;9.926;2023-05-08T09:15:32;13.50;99.90
17954;DHT22;9102;53.548;9.926;2023-05-08T09:18:00;13.60;99.90
17954;DHT22;9102;53.548;9.926;2023-05-08T09:20:29;13.50;99.90
17954;DHT22;9102;53.548;9.926;2023-05-08T09:22:57;13.50;99.90
17954;DHT22;9102;53.548;9.926;2023-05-08T09:25:27;13.70;99.90
17954;DHT22;9102;53.548;9.926;2023-05-08T09:28:16;13.80;99.90
17954;DHT22;9102;53.548;9.926;2023-05-08T09:30:51;13.90;99.90
17954;DHT22;9102;53.548;9.926;2023-05-08T09:33:18;13.90;99.90
17954;DHT22;9102;53.548;9.926;2023-05-08T09:35:46;14.10;99.90
17954;DHT22;9102;53.548;9.926;2023-05-08T09:38:33;14.30;99.90
17954;DHT22;9102;53.548;9.926;2023-05-08T09:41:08;14.50;99.90
17954;DHT22;9102;53.548;9.926;2023-05-08T09:43:35;14.70;99.90
17954;DHT22;9102;53.548;9.926;2023-05-08T09:46:19;14.80;99.90
17954;DHT22;9102;53.548;9.926;2023-05-08T09:48:51;14.60;99.90
17954;DHT22;9102;53.548;9.926;2023-05-08T09:51:20;14.40;99.90
17954;DHT22;9102;53.548;9.926;2023-05-08T09:53:49;14.20;99.90
17954;DHT22;9102;53.548;9.926;2023-05-08T09:56:31;14.20;99.90
17954;DHT22;9102;53.548;9.926;2023-05-08T09:58:58;14.30;99.90
17954;DHT22;9102;53.548;9.926;2023-05-08T10:01:29;14.20;99.90
17954;DHT22;9102;53.548;9.926;2023-05-08T10:03:56;14.30;99.90
17954;DHT22;9102;53.548;9.926;2023-05-08T10:06:25;14.40;99.90
17954;DHT22;9102;53.548;9.926;2023-05-08T10:09:09;14.70;99.90
17954;DHT22;9102;53.548;9.926;2023-05-08T10:11:37;15.00;99.90
17954;DHT22;9102;53.548;9.926;2023-05-08T10:14:04;15.30;99.90
17954;DHT22;9102;53.548;9.926;2023-05-08T10:16:35;15.20;99.90
17954;DHT22;9102;53.548;9.926;2023-05-08T10:19:06;15.30;99.90
17954;DHT22;9102;53.548;9.926;2023-05-08T10:21:40;15.40;99.90
17954;DHT22;9102;53.548;9.926;2023-05-08T10:24:13;15.50;99.90
17954;DHT22;9102;53.548;9.926;2023-05-08T10:26:42;15.70;99.90
17954;DHT22;9102;53.548;9.926;2023-05-08T10:29:16;16.00;99.90
17954;DHT22;9102;53.548;9.926;2023-05-08T10:31:45;16.00;99.90
17954;DHT22;9102;53.548;9.926;2023-05-08T10:34:18;16.10;99.90
17954;DHT22;9102;53.548;9.926;2023-05-08T10:36:49;16.10;99.90
17954;DHT22;9102;53.548;9.926;2023-05-08T10:39:17;16.30;99.90
17954;DHT22;9102;53.548;9.926;2023-05-08T10:41:46;16.60;99.90
17954;DHT22;9102;53.548;9.926;2023-05-08T10:44:14;16.70;99.90
17954;DHT22;9102;53.548;9.926;2023-05-08T10:46:48;16.60;99.90
17954;DHT22;9102;53.548;9.926;2023-05-08T10:49:21;16.70;99.90
17954;DHT22;9102;53.548;9.926;2023-05-08T10:52:00;16.50;99.90
17954;DHT22;9102;53.548;9.926;2023-05-08T10:54:37;16.70;99.90
17954;DHT22;9102;53.548;9.926;2023-05-08T10:57:08;16.60;99.90
17954;DHT22;9102;53.548;9.926;2023-05-08T10:59:36;16.70;99.90
17954;DHT22;9102;53.548;9.926;2023-05-08T11:02:03;16.80;99.90
17954;DHT22;9102;53.548;9.926;2023-05-08T11:04:31;16.90;99.90
17954;DHT22;9102;53.548;9.926;2023-05-08T11:06:59;17.00;99.90
17954;DHT22;9102;53.548;9.926;2023-05-08T11:09:29;17.10;99.90
17954;DHT22;9102;53.548;9.926;2023-05-08T11:12:05;17.20;99.90
17954;DHT22;9102;53.548;9.926;2023-05-08T11:14:33;17.20;99.90
17954;DHT22;9102;53.548;9.926;2023-05-08T11:17:08;17.00;98.50
17954;DHT22;9102;53.548;9.926;2023-05-08T11:19:36;17.00;98.50
17954;DHT22;9102;53.548;9.926;2023-05-08T11:22:32;17.10;97.30
17954;DHT22;9102;53.548;9.926;2023-05-08T11:25:04;17.30;95.80
17954;DHT22;9102;53.548;9.926;2023-05-08T11:27:39;17.40;95.30
17954;DHT22;9102;53.548;9.926;2023-05-08T11:30:21;17.10;95.30
17954;DHT22;9102;53.548;9.926;2023-05-08T11:32:55;17.10;97.50
17954;DHT22;9102;53.548;9.926;2023-05-08T11:35:39;17.00;98.30
17954;DHT22;9102;53.548;9.926;2023-05-08T11:38:22;17.00;99.50
17954;DHT22;9102;53.548;9.926;2023-05-08T11:40:55;16.90;97.90
17954;DHT22;9102;53.548;9.926;2023-05-08T11:43:40;16.80;99.90
17954;DHT22;9102;53.548;9.926;2023-05-08T11:46:13;16.90;99.90
17954;DHT22;9102;53.548;9.926;2023-05-08T11:48:41;16.90;99.90
17954;DHT22;9102;53.548;9.926;2023-05-08T11:51:08;17.10;99.60
17954;DHT22;9102;53.548;9.926;2023-05-08T11:53:37;17.30;99.40
17954;DHT22;9102;53.548;9.926;2023-05-08T11:56:04;17.60;98.30
17954;DHT22;9102;53.548;9.926;2023-05-08T11:58:31;17.60;96.50
17954;DHT22;9102;53.548;9.926;2023-05-08T12:00:58;17.70;90.10
17954;DHT22;9102;53.548;9.926;2023-05-08T12:03:25;17.80;87.60
17954;DHT22;9102;53.548;9.926;2023-05-08T12:05:55;18.10;86.90
17954;DHT22;9102;53.548;9.926;2023-05-08T12:08:25;18.30;84.30
17954;DHT22;9102;53.548;9.926;2023-05-08T12:10:55;18.20;85.00
17954;DHT22;9102;53.548;9.926;2023-05-08T12:13:23;18.30;85.80
17954;DHT22;9102;53.548;9.926;2023-05-08T12:15:53;18.40;83.90
17954;DHT22;9102;53.548;9.926;2023-05-08T12:18:21;18.50;81.90
17954;DHT22;9102;53.548;9.926;2023-05-08T12:20:50;18.70;83.10
17954;DHT22;9102;53.548;9.926;2023-05-08T12:23:18;18.90;82.50
17954;DHT22;9102;53.548;9.926;2023-05-08T12:25:45;18.80;79.50
17954;DHT22;9102;53.548;9.926;2023-05-08T12:28:13;18.70;80.10
17954;DHT22;9102;53.548;9.926;2023-05-08T12:30:40;18.30;79.80
17954;DHT22;9102;53.548;9.926;2023-05-08T12:33:07;18.00;80.10
17954;DHT22;9102;53.548;9.926;2023-05-08T12:35:36;17.80;79.50
17954;DHT22;9102;53.548;9.926;2023-05-08T12:38:06;17.70;80.30
17954;DHT22;9102;53.548;9.926;2023-05-08T12:40:35;17.70;80.80
17954;DHT22;9102;53.548;9.926;2023-05-08T12:43:07;18.10;81.40
17954;DHT22;9102;53.548;9.926;2023-05-08T12:45:37;18.20;78.50
17954;DHT22;9102;53.548;9.926;2023-05-08T12:48:05;18.40;78.60
17954;DHT22;9102;53.548;9.926;2023-05-08T12:50:34;18.50;77.40
17954;DHT22;9102;53.548;9.926;2023-05-08T12:53:01;18.60;77.20
17954;DHT22;9102;53.548;9.926;2023-05-08T12:55:32;18.70;77.90
17954;DHT22;9102;53.548;9.926;2023-05-08T12:58:04;18.90;78.10
17954;DHT22;9102;53.548;9.926;2023-05-08T13:00:37;18.80;78.70
17954;DHT22;9102;53.548;9.926;2023-05-08T13:03:05;18.70;78.70
17954;DHT22;9102;53.548;9.926;2023-05-08T13:05:33;18.60;77.30
17954;DHT22;9102;53.548;9.926;2023-05-08T13:08:02;18.40;76.50
17954;DHT22;9102;53.548;9.926;2023-05-08T13:10:53;18.30;77.80
17954;DHT22;9102;53.548;9.926;2023-05-08T13:13:21;18.40;78.20
17954;DHT22;9102;53.548;9.926;2023-05-08T13:15:51;18.40;78.70
17954;DHT22;9102;53.548;9.926;2023-05-08T13:18:19;18.40;77.80
17954;DHT22;9102;53.548;9.926;2023-05-08T13:20:46;18.40;78.10
17954;DHT22;9102;53.548;9.926;2023-05-08T13:23:13;18.40;79.10
17954;DHT22;9102;53.548;9.926;2023-05-08T13:25:40;18.60;78.80
17954;DHT22;9102;53.548;9.926;2023-05-08T13:28:08;18.60;78.20
17954;DHT22;9102;53.548;9.926;2023-05-08T13:30:36;18.80;77.70
17954;DHT22;9102;53.548;9.926;2023-05-08T13:33:04;18.70;78.10
17954;DHT22;9102;53.548;9.926;2023-05-08T13:35:33;18.60;78.50
17954;DHT22;9102;53.548;9.926;2023-05-08T13:38:00;18.60;78.10
17954;DHT22;9102;53.548;9.926;2023-05-08T13:40:27;18.60;78.70
17954;DHT22;9102;53.548;9.926;2023-05-08T13:42:54;18.60;78.90
17954;DHT22;9102;53.548;9.926;2023-05-08T13:45:21;18.40;78.70
17954;DHT22;9102;53.548;9.926;2023-05-08T13:47:48;18.40;77.80
17954;DHT22;9102;53.548;9.926;2023-05-08T13:50:17;18.40;78.50
17954;DHT22;9102;53.548;9.926;2023-05-08T13:52:46;18.30;76.20
17954;DHT22;9102;53.548;9.926;2023-05-08T13:55:13;18.50;76.80
17954;DHT22;9102;53.548;9.926;2023-05-08T13:57:40;18.60;75.70
17954;DHT22;9102;53.548;9.926;2023-05-08T14:00:08;18.60;75.90
17954;DHT22;9102;53.548;9.926;2023-05-08T14:02:35;18.70;75.40
17954;DHT22;9102;53.548;9.926;2023-05-08T14:05:02;18.70;75.40
17954;DHT22;9102;53.548;9.926;2023-05-08T14:07:31;18.70;76.30
17954;DHT22;9102;53.548;9.926;2023-05-08T14:09:58;18.80;76.60
17954;DHT22;9102;53.548;9.926;2023-05-08T14:12:24;18.80;76.30
17954;DHT22;9102;53.548;9.926;2023-05-08T14:14:51;18.70;75.70
17954;DHT22;9102;53.548;9.926;2023-05-08T14:17:18;18.70;75.60
17954;DHT22;9102;53.548;9.926;2023-05-08T14:19:45;18.60;75.30
17954;DHT22;9102;53.548;9.926;2023-05-08T14:22:12;18.50;76.10
17954;DHT22;9102;53.548;9.926;2023-05-08T14:24:40;18.70;76.60
17954;DHT22;9102;53.548;9.926;2023-05-08T14:27:06;18.70;75.60
17954;DHT22;9102;53.548;9.926;2023-05-08T14:29:33;18.70;76.40
17954;DHT22;9102;53.548;9.926;2023-05-08T14:32:00;18.80;76.10
17954;DHT22;9102;53.548;9.926;2023-05-08T14:34:27;18.90;76.00
17954;DHT22;9102;53.548;9.926;2023-05-08T14:36:54;19.00;76.20
17954;DHT22;9102;53.548;9.926;2023-05-08T14:39:21;19.00;75.60
17954;DHT22;9102;53.548;9.926;2023-05-08T14:41:49;19.00;75.30
17954;DHT22;9102;53.548;9.926;2023-05-08T14:44:16;19.00;75.20
17954;DHT22;9102;53.548;9.926;2023-05-08T14:46:43;18.90;75.10
17954;DHT22;9102;53.548;9.926;2023-05-08T14:49:10;18.90;75.30
17954;DHT22;9102;53.548;9.926;2023-05-08T14:51:37;19.00;75.40
17954;DHT22;9102;53.548;9.926;2023-05-08T14:54:03;19.00;75.10
17954;DHT22;9102;53.548;9.926;2023-05-08T14:56:31;19.00;75.50
17954;DHT22;9102;53.548;9.926;2023-05-08T14:58:59;19.00;74.10
17954;DHT22;9102;53.548;9.926;2023-05-08T15:01:26;19.00;74.00
17954;DHT22;9102;53.548;9.926;2023-05-08T15:03:52;19.10;73.60
17954;DHT22;9102;53.548;9.926;2023-05-08T15:06:20;19.10;74.00
17954;DHT22;9102;53.548;9.926;2023-05-08T15:08:47;19.10;73.10
17954;DHT22;9102;53.548;9.926;2023-05-08T15:11:16;19.10;73.10
17954;DHT22;9102;53.548;9.926;2023-05-08T15:13:43;19.00;73.60
17954;DHT22;9102;53.548;9.926;2023-05-08T15:16:11;19.00;72.80
17954;DHT22;9102;53.548;9.926;2023-05-08T15:18:38;19.00;72.90
17954;DHT22;9102;53.548;9.926;2023-05-08T15:21:05;19.00;73.70
17954;DHT22;9102;53.548;9.926;2023-05-08T15:23:31;19.20;73.80
17954;DHT22;9102;53.548;9.926;2023-05-08T15:25:58;19.20;73.40
17954;DHT22;9102;53.548;9.926;2023-05-08T15:28:25;19.10;73.70
17954;DHT22;9102;53.548;9.926;2023-05-08T15:30:52;19.20;74.10
17954;DHT22;9102;53.548;9.926;2023-05-08T15:33:20;19.20;73.30
17954;DHT22;9102;53.548;9.926;2023-05-08T15:35:47;19.20;71.80
17954;DHT22;9102;53.548;9.926;2023-05-08T15:38:14;19.10;70.60
17954;DHT22;9102;53.548;9.926;2023-05-08T15:40:41;19.10;69.80
17954;DHT22;9102;53.548;9.926;2023-05-08T15:43:08;19.00;69.30
17954;DHT22;9102;53.548;9.926;2023-05-08T15:45:35;19.00;69.10
17954;DHT22;9102;53.548;9.926;2023-05-08T15:48:02;19.00;69.30
17954;DHT22;9102;53.548;9.926;2023-05-08T15:50:30;19.00;69.10
17954;DHT22;9102;53.548;9.926;2023-05-08T15:52:57;19.00;67.80
17954;DHT22;9102;53.548;9.926;2023-05-08T15:55:24;19.00;67.60
17954;DHT22;9102;53.548;9.926;2023-05-08T15:57:51;19.00;68.10
17954;DHT22;9102;53.548;9.926;2023-05-08T16:00:18;19.00;67.30
17954;DHT22;9102;53.548;9.926;2023-05-08T16:02:45;19.00;68.10